Time;durP1;ratioP1;P1;durP2;ratioP2;P2;SDS_P1;SDS_P2;PMS_P1;PMS_P2;Temp;Humidity;BMP_temperature;BMP_pressure;BME280_temperature;BME280_humidity;BME280_pressure;Samples;Min_cycle;Max_cycle;Signal;HPM_P1;HPM_P2
2022/05/03 00:01:04;;;;;;;17.08;10.27;;;15.30;50.80;;;;;;5055596;28;20500;-42
2022/05/03 00:03:41;;;;;;;14.43;10.63;;;15.30;50.70;;;;;;5051681;28;20381;-45
2022/05/03 00:06:19;;;;;;;14.65;10.85;;;15.30;50.90;;;;;;5059149;28;20060;-44
2022/05/03 00:08:53;;;;;;;18.80;11.10;;;15.30;50.80;;;;;;5057680;28;20036;-42
2022/05/03 00:11:29;;;;;;;16.30;10.68;;;15.20;50.60;;;;;;5053534;28;20487;-43
2022/05/03 00:14:13;;;;;;;25.35;11.35;;;15.20;50.70;;;;;;5057597;28;20057;-44
2022/05/03 00:16:44;;;;;;;15.85;10.90;;;15.30;50.80;;;;;;5057243;28;20052;-42
2022/05/03 00:19:11;;;;;;;19.23;11.07;;;15.30;50.60;;;;;;5051333;28;20056;-42
2022/05/03 00:21:39;;;;;;;16.55;10.50;;;15.30;50.60;;;;;;5054573;28;20053;-42
2022/05/03 00:24:07;;;;;;;18.17;11.25;;;15.30;50.50;;;;;;5059577;28;20056;-45
2022/05/03 00:26:36;;;;;;;18.02;11.32;;;15.30;50.60;;;;;;5057027;28;20049;-42
2022/05/03 00:29:05;;;;;;;16.20;10.65;;;15.30;50.50;;;;;;5058792;28;20063;-42
2022/05/03 00:31:33;;;;;;;14.77;10.10;;;15.40;50.50;;;;;;5049808;28;20729;-42
2022/05/03 00:34:00;;;;;;;15.90;9.68;;;15.40;50.50;;;;;;5055381;28;20056;-42
2022/05/03 00:36:28;;;;;;;15.63;10.60;;;15.40;50.50;;;;;;5057806;28;20053;-47
2022/05/03 00:38:55;;;;;;;16.05;10.35;;;15.40;50.40;;;;;;5056877;28;20409;-43
2022/05/03 00:41:36;;;;;;;12.88;9.32;;;15.40;50.10;;;;;;5054699;28;20051;-42
2022/05/03 00:47:05;;;;;;;18.27;11.45;;;15.50;50.10;;;;;;5054342;28;20045;-43
2022/05/03 00:49:45;;;;;;;16.33;9.95;;;15.50;50.10;;;;;;5057559;28;20052;-43
2022/05/03 00:52:23;;;;;;;14.15;10.65;;;15.50;50.20;;;;;;5053717;28;20060;-42
2022/05/03 00:55:08;;;;;;;17.33;10.98;;;15.50;50.20;;;;;;5057974;28;20493;-43
2022/05/03 00:57:42;;;;;;;18.70;10.65;;;15.50;50.30;;;;;;5056732;28;20044;-44
2022/05/03 01:00:17;;;;;;;14.18;9.75;;;15.50;50.20;;;;;;5056667;28;20048;-43
2022/05/03 01:03:07;;;;;;;14.20;10.43;;;15.50;50.20;;;;;;5056306;28;20420;-44
2022/05/03 01:05:45;;;;;;;16.38;10.60;;;15.50;50.40;;;;;;5061411;28;21157;-44
2022/05/03 01:08:19;;;;;;;14.77;10.45;;;15.50;50.30;;;;;;5062306;28;20102;-45
2022/05/03 01:10:58;;;;;;;18.88;11.68;;;15.40;50.40;;;;;;5058998;28;20048;-43
2022/05/03 01:13:30;;;;;;;16.02;10.85;;;15.40;50.40;;;;;;5057215;28;20063;-43
2022/05/03 01:16:05;;;;;;;15.40;10.40;;;15.40;50.50;;;;;;5057209;28;20059;-44
2022/05/03 01:18:42;;;;;;;16.17;10.75;;;15.30;50.50;;;;;;5060164;28;20052;-43
2022/05/03 01:21:15;;;;;;;17.63;10.88;;;15.30;50.50;;;;;;5059708;28;20052;-43
2022/05/03 01:24:15;;;;;;;18.02;11.98;;;15.20;50.40;;;;;;5059759;28;20067;-44
2022/05/03 01:27:21;;;;;;;18.13;11.52;;;15.20;50.70;;;;;;5059171;28;20079;-43
2022/05/03 01:29:51;;;;;;;17.63;11.48;;;15.20;50.70;;;;;;5057253;28;20044;-43
2022/05/03 01:32:21;;;;;;;16.35;11.23;;;15.10;50.50;;;;;;5052700;28;20060;-43
2022/05/03 01:34:48;;;;;;;17.08;11.70;;;15.10;50.60;;;;;;5060164;28;20701;-43
2022/05/03 01:37:37;;;;;;;16.52;10.77;;;15.10;50.70;;;;;;5055027;28;20061;-43
2022/05/03 01:40:07;;;;;;;18.70;10.73;;;15.00;50.80;;;;;;5057011;28;20045;-47
2022/05/03 01:42:57;;;;;;;15.43;11.23;;;15.00;50.80;;;;;;5052991;28;20067;-43
2022/05/03 01:45:32;;;;;;;13.35;10.60;;;15.00;50.90;;;;;;5059025;28;20492;-43
2022/05/03 01:48:17;;;;;;;18.02;11.93;;;15.00;51.00;;;;;;5060443;28;20503;-44
2022/05/03 01:50:53;;;;;;;15.88;10.43;;;14.90;51.00;;;;;;5057685;28;20052;-43
2022/05/03 01:53:30;;;;;;;15.77;10.43;;;15.00;51.00;;;;;;5057036;28;20048;-44
2022/05/03 01:56:21;;;;;;;17.63;11.50;;;15.00;51.10;;;;;;5061645;28;20523;-43
2022/05/03 01:59:05;;;;;;;15.77;11.30;;;15.00;51.20;;;;;;5058791;28;20049;-46
2022/05/03 02:01:51;;;;;;;17.53;11.60;;;14.90;51.30;;;;;;5054989;28;20518;-43
2022/05/03 02:04:37;;;;;;;19.02;10.50;;;14.90;51.20;;;;;;5055189;28;20053;-45
2022/05/03 02:07:07;;;;;;;15.18;10.50;;;14.90;51.20;;;;;;5056240;28;20059;-44
2022/05/03 02:09:54;;;;;;;16.65;10.70;;;14.90;51.20;;;;;;5055493;28;20040;-44
2022/05/03 02:12:22;;;;;;;19.38;12.23;;;14.90;51.40;;;;;;5054608;28;20052;-43
2022/05/03 02:14:51;;;;;;;18.80;11.18;;;14.90;51.30;;;;;;5056909;28;20548;-45
2022/05/03 02:17:42;;;;;;;14.68;10.60;;;14.90;51.20;;;;;;5058415;28;20075;-48
2022/05/03 02:20:22;;;;;;;16.05;10.35;;;14.90;51.10;;;;;;5055305;28;20063;-45
2022/05/03 02:23:04;;;;;;;15.15;9.38;;;15.00;51.20;;;;;;5053549;28;20048;-46
2022/05/03 02:25:42;;;;;;;15.95;10.90;;;14.90;51.60;;;;;;5055072;28;20420;-44
2022/05/03 02:28:19;;;;;;;14.15;10.63;;;14.90;51.30;;;;;;5059383;28;20048;-44
2022/05/03 02:30:48;;;;;;;16.77;11.30;;;15.00;51.60;;;;;;5058899;28;20052;-43
2022/05/03 02:33:26;;;;;;;18.52;11.82;;;15.00;51.50;;;;;;5054359;28;20064;-43
2022/05/03 02:35:57;;;;;;;18.65;12.23;;;15.00;51.40;;;;;;5059952;28;20056;-43
2022/05/03 02:38:31;;;;;;;20.45;12.25;;;15.00;51.20;;;;;;5061519;28;20053;-44
2022/05/03 02:41:04;;;;;;;17.27;11.23;;;15.00;51.20;;;;;;5060727;28;20060;-43
2022/05/03 02:43:32;;;;;;;17.80;12.10;;;15.00;51.00;;;;;;5051577;28;20512;-44
2022/05/03 02:46:16;;;;;;;19.40;12.68;;;15.00;51.00;;;;;;5050313;28;20409;-43
2022/05/03 02:48:56;;;;;;;20.50;13.10;;;14.90;51.00;;;;;;5049836;28;20389;-43
2022/05/03 02:51:31;;;;;;;20.25;12.85;;;14.90;51.00;;;;;;5058257;28;20052;-49
2022/05/03 02:54:02;;;;;;;21.30;12.48;;;14.90;51.00;;;;;;5057873;28;20424;-43
2022/05/03 02:56:42;;;;;;;20.10;13.30;;;14.90;51.00;;;;;;5060906;28;20496;-43
2022/05/03 02:59:19;;;;;;;17.83;12.13;;;14.80;51.00;;;;;;5054357;28;20045;-44
2022/05/03 03:01:59;;;;;;;23.10;12.88;;;14.80;50.90;;;;;;5054218;28;20064;-44
2022/05/03 03:04:37;;;;;;;19.73;12.98;;;14.70;50.90;;;;;;5060413;28;20053;-43
2022/05/03 03:07:06;;;;;;;19.70;13.43;;;14.80;51.00;;;;;;5058889;28;20443;-46
2022/05/03 03:09:44;;;;;;;22.15;12.98;;;14.70;50.90;;;;;;5059089;28;20048;-43
2022/05/03 03:12:22;;;;;;;23.30;14.02;;;14.70;51.00;;;;;;5056512;28;20075;-43
2022/05/03 03:14:56;;;;;;;25.70;14.32;;;14.60;51.00;;;;;;5060167;28;20055;-43
2022/05/03 03:17:30;;;;;;;20.35;14.55;;;14.60;51.20;;;;;;5056870;28;20053;-43
2022/05/03 03:20:10;;;;;;;20.98;14.88;;;14.60;51.40;;;;;;5060900;28;20061;-43
2022/05/03 03:22:39;;;;;;;22.25;14.90;;;14.50;51.50;;;;;;5057911;28;20599;-43
2022/05/03 03:25:08;;;;;;;26.90;15.18;;;14.40;51.50;;;;;;5059532;28;20053;-43
2022/05/03 03:27:37;;;;;;;23.95;14.85;;;14.30;51.70;;;;;;5056406;28;20409;-43
2022/05/03 03:30:07;;;;;;;23.70;15.15;;;14.30;51.90;;;;;;5060857;28;20048;-46
2022/05/03 03:32:39;;;;;;;21.75;14.98;;;14.20;52.10;;;;;;5052591;28;20044;-43
2022/05/03 03:35:09;;;;;;;22.33;14.60;;;14.10;52.30;;;;;;5057116;28;20057;-45
2022/05/03 03:37:36;;;;;;;22.77;14.93;;;14.10;52.40;;;;;;5050450;28;20323;-46
2022/05/03 03:40:05;;;;;;;22.80;16.50;;;14.00;52.40;;;;;;5060094;28;20052;-45
2022/05/03 03:42:34;;;;;;;23.98;16.55;;;14.00;53.10;;;;;;5056748;28;20056;-43
2022/05/03 03:45:07;;;;;;;27.75;17.05;;;13.90;52.50;;;;;;5058519;28;20056;-44
2022/05/03 03:47:35;;;;;;;28.60;16.50;;;13.90;52.70;;;;;;5053654;28;20052;-46
2022/05/03 03:50:04;;;;;;;24.77;17.15;;;13.90;52.70;;;;;;5056065;28;20052;-43
2022/05/03 03:52:34;;;;;;;22.23;15.85;;;13.90;52.90;;;;;;5049463;28;20048;-44
2022/05/03 03:55:02;;;;;;;24.67;17.30;;;13.80;52.90;;;;;;5053506;28;20060;-43
2022/05/03 03:57:31;;;;;;;28.40;16.88;;;13.80;53.00;;;;;;5056331;28;20048;-43
2022/05/03 03:59:59;;;;;;;28.58;16.45;;;13.80;53.10;;;;;;5057670;28;20056;-43
2022/05/03 04:02:27;;;;;;;26.83;16.55;;;13.80;53.20;;;;;;5053588;28;20053;-44
2022/05/03 04:04:56;;;;;;;21.27;15.20;;;13.70;53.10;;;;;;5052354;28;20075;-43
2022/05/03 04:07:24;;;;;;;21.70;15.75;;;13.80;53.20;;;;;;5058147;28;20056;-44
2022/05/03 04:09:53;;;;;;;26.17;17.42;;;13.80;53.10;;;;;;5058257;28;20052;-43
2022/05/03 04:12:21;;;;;;;27.45;17.25;;;13.80;53.20;;;;;;5055716;28;20052;-43
2022/05/03 04:14:49;;;;;;;24.48;17.45;;;13.80;53.30;;;;;;5056033;28;20052;-42
2022/05/03 04:17:17;;;;;;;25.00;16.80;;;13.80;53.20;;;;;;5045505;28;20045;-43
2022/05/03 04:19:45;;;;;;;29.30;17.58;;;13.80;53.20;;;;;;5053753;28;20483;-43
2022/05/03 04:22:26;;;;;;;25.90;17.45;;;13.80;53.20;;;;;;5053942;28;20064;-45
2022/05/03 04:24:55;;;;;;;25.00;17.42;;;13.80;53.20;;;;;;5057458;28;20053;-43
2022/05/03 04:27:23;;;;;;;24.83;17.15;;;13.80;53.10;;;;;;5058967;28;20424;-43
2022/05/03 04:29:51;;;;;;;27.13;17.52;;;13.80;53.00;;;;;;5060041;28;20048;-43
2022/05/03 04:32:19;;;;;;;24.80;16.98;;;13.80;53.00;;;;;;5052633;28;20049;-44
2022/05/03 04:34:47;;;;;;;24.90;16.63;;;13.80;53.00;;;;;;5054666;28;20049;-43
2022/05/03 04:37:15;;;;;;;25.88;16.92;;;13.80;53.00;;;;;;5064561;28;20504;-45
2022/05/03 04:39:43;;;;;;;25.77;17.45;;;13.80;53.00;;;;;;5054555;28;20059;-43
2022/05/03 04:42:13;;;;;;;24.73;16.35;;;13.70;53.10;;;;;;5060356;28;20060;-43
2022/05/03 04:44:40;;;;;;;24.48;17.00;;;13.80;53.20;;;;;;5064236;28;20412;-43
2022/05/03 04:47:08;;;;;;;23.23;16.80;;;13.70;53.10;;;;;;5058594;28;20055;-45
2022/05/03 04:49:35;;;;;;;26.02;17.00;;;13.70;53.10;;;;;;5062415;28;20045;-43
2022/05/03 04:52:03;;;;;;;27.17;16.90;;;13.70;53.20;;;;;;5059853;28;20059;-43
2022/05/03 04:54:31;;;;;;;25.50;17.33;;;13.70;53.40;;;;;;5064339;28;20067;-43
2022/05/03 04:57:02;;;;;;;24.20;16.52;;;13.70;53.60;;;;;;5062835;28;20068;-43
2022/05/03 04:59:31;;;;;;;26.17;16.20;;;13.70;53.70;;;;;;5058662;28;20045;-45
2022/05/03 05:01:59;;;;;;;26.45;17.23;;;13.60;53.70;;;;;;5059046;28;20496;-43
2022/05/03 05:04:26;;;;;;;28.40;17.40;;;13.60;53.90;;;;;;5062333;28;20516;-43
2022/05/03 05:06:53;;;;;;;27.67;16.75;;;13.60;53.90;;;;;;5062544;28;20057;-43
2022/05/03 05:09:21;;;;;;;23.67;16.15;;;13.60;53.90;;;;;;5064652;28;20056;-46
2022/05/03 05:11:49;;;;;;;24.88;16.23;;;13.60;54.50;;;;;;5058736;28;20060;-43
2022/05/03 05:14:19;;;;;;;24.45;14.95;;;13.60;54.00;;;;;;5063594;28;20063;-43
2022/05/03 05:16:49;;;;;;;26.58;16.80;;;13.60;53.90;;;;;;5061453;28;20052;-43
2022/05/03 05:19:17;;;;;;;22.55;15.40;;;13.60;54.00;;;;;;5057132;28;20063;-43
2022/05/03 05:21:44;;;;;;;20.40;13.90;;;13.60;54.00;;;;;;5050850;28;20064;-42
2022/05/03 05:24:13;;;;;;;27.15;18.00;;;13.60;54.00;;;;;;5053286;28;20052;-43
2022/05/03 05:26:42;;;;;;;28.15;17.00;;;13.60;54.10;;;;;;5055549;28;20057;-43
2022/05/03 05:29:09;;;;;;;23.45;15.63;;;13.70;54.00;;;;;;5056126;28;20061;-42
2022/05/03 05:31:37;;;;;;;21.50;15.05;;;13.70;54.10;;;;;;5054082;28;20057;-43
2022/05/03 05:34:06;;;;;;;26.48;16.10;;;13.70;54.00;;;;;;5058524;28;20412;-43
2022/05/03 05:36:33;;;;;;;26.55;16.20;;;13.70;54.00;;;;;;5063345;28;20052;-43
2022/05/03 05:39:01;;;;;;;21.83;15.48;;;13.80;54.00;;;;;;5059838;28;20060;-43
2022/05/03 05:41:28;;;;;;;24.33;17.17;;;13.80;54.10;;;;;;5058702;28;20056;-46
2022/05/03 05:43:55;;;;;;;25.80;16.23;;;13.80;54.10;;;;;;5061787;28;20066;-43
2022/05/03 05:46:23;;;;;;;22.30;16.08;;;13.80;54.10;;;;;;5052398;28;20076;-48
2022/05/03 05:48:50;;;;;;;22.98;16.58;;;13.80;54.10;;;;;;5057954;28;20051;-43
2022/05/03 05:51:19;;;;;;;29.85;16.13;;;13.80;54.20;;;;;;5060760;28;20489;-43
2022/05/03 05:53:45;;;;;;;24.75;16.05;;;13.80;54.20;;;;;;5058601;28;20049;-43
2022/05/03 05:56:14;;;;;;;27.30;16.92;;;13.70;54.70;;;;;;5061164;28;20064;-43
2022/05/03 05:58:42;;;;;;;24.60;15.00;;;13.70;54.20;;;;;;5055734;28;20056;-43
2022/05/03 06:01:10;;;;;;;27.58;17.15;;;13.70;54.20;;;;;;5054059;28;20060;-43
2022/05/03 06:03:40;;;;;;;25.60;16.38;;;13.70;54.30;;;;;;5057818;28;20386;-43
2022/05/03 06:06:08;;;;;;;22.17;15.65;;;13.70;54.70;;;;;;5060250;28;20056;-42
2022/05/03 06:08:37;;;;;;;26.75;16.85;;;13.70;54.30;;;;;;5054047;28;20060;-43
2022/05/03 06:11:04;;;;;;;24.10;16.25;;;13.70;54.40;;;;;;5052897;28;20158;-45
2022/05/03 06:13:32;;;;;;;25.30;15.90;;;13.70;54.60;;;;;;5060296;28;20056;-43
2022/05/03 06:16:08;;;;;;;25.33;16.27;;;13.70;54.50;;;;;;5061370;28;20053;-43
2022/05/03 06:18:35;;;;;;;30.40;17.17;;;13.70;54.50;;;;;;5059763;28;20515;-43
2022/05/03 06:21:04;;;;;;;25.50;15.48;;;13.70;54.40;;;;;;5057543;28;20056;-43
2022/05/03 06:23:32;;;;;;;27.05;16.45;;;13.70;54.50;;;;;;5052149;28;20048;-42
2022/05/03 06:26:05;;;;;;;24.90;16.17;;;13.70;54.40;;;;;;5056843;28;20056;-43
2022/05/03 06:28:32;;;;;;;28.45;16.85;;;13.70;54.50;;;;;;5053369;28;20061;-43
2022/05/03 06:31:00;;;;;;;28.63;16.13;;;13.70;54.50;;;;;;5062627;28;20049;-43
2022/05/03 06:33:27;;;;;;;24.15;15.10;;;13.70;54.50;;;;;;5058480;28;20056;-42
2022/05/03 06:35:55;;;;;;;27.98;16.90;;;13.70;54.60;;;;;;5062615;28;20633;-42
2022/05/03 06:38:22;;;;;;;32.10;17.73;;;13.70;54.70;;;;;;5063764;28;20083;-43
2022/05/03 06:40:50;;;;;;;25.75;16.55;;;13.70;54.60;;;;;;5061125;28;20063;-43
2022/05/03 06:43:19;;;;;;;27.35;15.38;;;13.60;54.50;;;;;;5060858;28;20068;-44
2022/05/03 06:45:46;;;;;;;24.55;15.10;;;13.60;54.70;;;;;;5061697;28;20048;-43
2022/05/03 06:48:15;;;;;;;26.90;17.13;;;13.60;54.80;;;;;;5061220;28;20498;-43
2022/05/03 06:50:42;;;;;;;30.70;16.27;;;13.60;54.80;;;;;;5059130;28;20063;-43
2022/05/03 06:53:10;;;;;;;29.30;14.98;;;13.60;54.80;;;;;;5058369;28;20067;-43
2022/05/03 06:55:37;;;;;;;22.58;14.75;;;13.60;54.80;;;;;;5054086;28;20059;-43
2022/05/03 06:58:05;;;;;;;26.80;16.25;;;13.60;54.80;;;;;;5052664;28;20400;-43
2022/05/03 07:00:33;;;;;;;30.92;17.23;;;13.60;54.90;;;;;;5053886;28;20509;-43
2022/05/03 07:03:01;;;;;;;30.55;15.85;;;13.60;54.90;;;;;;5049633;28;20492;-44
2022/05/03 07:05:29;;;;;;;23.40;16.48;;;13.70;54.90;;;;;;5055256;28;20052;-43
2022/05/03 07:07:56;;;;;;;29.10;16.38;;;13.70;54.90;;;;;;5059925;28;20057;-43
2022/05/03 07:10:24;;;;;;;20.73;15.45;;;13.80;54.80;;;;;;5056640;28;20052;-49
2022/05/03 07:12:52;;;;;;;24.60;17.13;;;13.80;54.90;;;;;;5055583;28;20443;-43
2022/05/03 07:15:20;;;;;;;30.65;15.63;;;13.90;54.90;;;;;;5056813;28;20052;-45
2022/05/03 07:23:17;;;;;;;;;;;14.10;54.50;;;;;;5066349;28;20507;-43
2022/05/03 07:25:45;;;;;;;28.63;18.48;;;14.20;54.50;;;;;;5057647;28;19928;-43
2022/05/03 07:28:13;;;;;;;24.92;16.65;;;14.20;54.40;;;;;;5060381;28;20063;-44
2022/05/03 07:30:41;;;;;;;26.98;18.15;;;14.30;54.40;;;;;;5043558;28;20496;-43
2022/05/03 07:33:10;;;;;;;24.35;17.23;;;14.30;54.10;;;;;;5025806;28;20057;-43
2022/05/03 07:35:37;;;;;;;27.05;17.83;;;14.30;54.10;;;;;;5051046;28;20049;-45
2022/05/03 07:38:05;;;;;;;28.83;18.10;;;14.30;54.10;;;;;;5034903;28;20261;-45
2022/05/03 07:40:33;;;;;;;54.50;19.25;;;14.30;54.30;;;;;;5053615;28;20059;-43
2022/05/03 07:43:02;;;;;;;31.83;19.08;;;14.30;54.60;;;;;;5024835;28;20073;-46
2022/05/03 07:45:29;;;;;;;41.90;20.48;;;14.20;55.00;;;;;;5022916;28;20060;-43
2022/05/03 07:47:57;;;;;;;30.92;19.55;;;14.20;54.60;;;;;;5019675;28;20060;-46
2022/05/03 07:50:26;;;;;;;31.33;18.73;;;14.10;54.50;;;;;;5022317;28;20056;-46
2022/05/03 07:52:53;;;;;;;25.92;18.15;;;14.10;54.90;;;;;;5028660;28;20699;-42
2022/05/03 07:55:21;;;;;;;29.67;18.20;;;14.10;55.20;;;;;;5029009;28;20049;-43
2022/05/03 07:57:48;;;;;;;30.75;18.35;;;14.10;55.50;;;;;;5045330;28;20048;-43
2022/05/03 08:00:16;;;;;;;32.65;17.98;;;14.10;55.70;;;;;;5037814;28;20060;-43
2022/05/03 08:02:44;;;;;;;23.92;18.20;;;14.20;55.90;;;;;;5031013;28;20052;-43
2022/05/03 08:05:11;;;;;;;35.60;19.50;;;14.30;56.20;;;;;;5037557;28;20068;-43
2022/05/03 08:07:40;;;;;;;29.55;18.98;;;14.30;55.50;;;;;;5056594;28;20063;-43
2022/05/03 08:10:08;;;;;;;32.50;19.30;;;14.30;55.30;;;;;;5059496;28;20057;-45
2022/05/03 08:12:36;;;;;;;30.42;19.17;;;14.40;55.20;;;;;;5060803;28;20052;-43
2022/05/03 08:15:04;;;;;;;35.85;21.05;;;14.40;55.30;;;;;;5056816;28;20099;-45
2022/05/03 08:17:31;;;;;;;32.70;20.52;;;14.50;55.40;;;;;;5059665;28;20408;-43
2022/05/03 08:19:59;;;;;;;27.40;19.30;;;14.50;55.20;;;;;;5051345;28;20055;-45
2022/05/03 08:22:26;;;;;;;29.10;19.38;;;14.50;55.60;;;;;;5059067;28;20045;-43
2022/05/03 08:24:55;;;;;;;31.60;19.95;;;14.50;56.40;;;;;;5060838;28;20049;-48
2022/05/03 08:27:23;;;;;;;26.20;18.60;;;14.60;57.00;;;;;;5060668;28;20695;-43
2022/05/03 08:29:50;;;;;;;28.55;19.90;;;14.70;56.60;;;;;;5060522;28;20419;-43
2022/05/03 08:32:17;;;;;;;36.97;20.27;;;14.70;55.80;;;;;;5058761;28;20052;-43
2022/05/03 08:34:45;;;;;;;27.58;18.95;;;14.80;55.30;;;;;;5058190;28;20060;-43
2022/05/03 08:42:43;;;;;;;31.38;19.17;;;15.10;55.40;;;;;;5066262;28;19928;-45
2022/05/03 08:45:10;;;;;;;27.95;19.35;;;15.20;54.90;;;;;;5059700;28;20063;-43
2022/05/03 08:47:39;;;;;;;29.15;19.88;;;15.20;54.90;;;;;;5060224;28;20055;-43
2022/05/03 08:50:08;;;;;;;25.52;18.73;;;15.30;55.40;;;;;;5057531;28;20076;-43
2022/05/03 08:52:47;;;;;;;27.38;19.08;;;15.30;55.30;;;;;;5060349;28;20052;-43
2022/05/03 08:55:17;;;;;;;29.42;18.80;;;15.50;55.20;;;;;;5060064;28;20056;-43
2022/05/03 08:57:45;;;;;;;30.92;20.65;;;15.50;54.60;;;;;;5059864;28;20048;-44
2022/05/03 09:00:14;;;;;;;30.67;20.17;;;15.60;54.00;;;;;;5059188;28;20063;-42
2022/05/03 09:02:46;;;;;;;30.63;17.80;;;15.70;53.80;;;;;;5059070;28;20523;-43
2022/05/03 09:05:13;;;;;;;31.48;17.90;;;15.70;53.90;;;;;;5057477;28;20543;-43
2022/05/03 09:07:48;;;;;;;32.45;19.38;;;15.80;53.90;;;;;;5059095;28;20067;-43
2022/05/03 09:10:19;;;;;;;31.73;19.33;;;15.90;53.70;;;;;;5057527;28;20496;-43
2022/05/03 09:12:48;;;;;;;34.10;18.77;;;16.00;53.50;;;;;;5056506;28;20044;-43
2022/05/03 09:15:15;;;;;;;27.80;17.75;;;16.10;53.30;;;;;;5059667;28;20064;-43
2022/05/03 09:17:44;;;;;;;28.05;18.77;;;16.20;53.40;;;;;;5058163;28;20424;-43
2022/05/03 09:25:52;;;;;;;26.63;15.85;;;16.50;52.90;;;;;;5069378;28;20059;-42
2022/05/03 09:28:22;;;;;;;25.38;17.67;;;16.60;52.40;;;;;;5064514;28;20056;-43
2022/05/03 09:30:51;;;;;;;33.67;17.65;;;16.70;52.40;;;;;;5061558;28;20079;-42
2022/05/03 09:33:20;;;;;;;23.45;16.38;;;16.80;52.60;;;;;;5057891;28;20060;-42
2022/05/03 09:35:48;;;;;;;27.45;16.65;;;16.80;51.90;;;;;;5058143;28;20060;-43
2022/05/03 09:38:16;;;;;;;23.67;14.35;;;16.90;51.90;;;;;;5063517;28;20061;-45
2022/05/03 09:40:47;;;;;;;23.02;15.43;;;16.90;51.80;;;;;;5058244;28;20053;-45
2022/05/03 09:43:17;;;;;;;22.55;15.82;;;17.00;51.20;;;;;;5057685;28;20055;-44
2022/05/03 09:45:45;;;;;;;28.08;17.83;;;17.00;51.40;;;;;;5057968;28;20484;-43
2022/05/03 09:48:12;;;;;;;29.50;17.70;;;17.00;51.00;;;;;;5061519;28;20052;-44
2022/05/03 09:50:42;;;;;;;28.23;16.42;;;17.00;51.40;;;;;;5060832;28;20044;-43
2022/05/03 09:53:12;;;;;;;23.58;16.58;;;17.10;51.90;;;;;;5059268;28;20381;-43
2022/05/03 09:55:41;;;;;;;22.30;15.32;;;17.10;51.10;;;;;;5057696;28;20397;-43
2022/05/03 09:58:10;;;;;;;27.67;16.75;;;17.20;50.80;;;;;;5060217;28;20052;-45
2022/05/03 10:00:42;;;;;;;21.35;14.77;;;17.20;50.50;;;;;;5052647;28;20048;-42
2022/05/03 10:06:32;;;;;;;22.10;13.80;;;17.40;50.20;;;;;;5054020;28;20044;-42
2022/05/03 10:09:00;;;;;;;21.60;14.30;;;17.50;50.30;;;;;;5060604;28;20488;-43
2022/05/03 10:11:28;;;;;;;22.00;14.23;;;17.50;50.30;;;;;;5055396;28;20413;-43
2022/05/03 10:13:56;;;;;;;19.30;13.55;;;17.60;50.30;;;;;;5060237;28;20495;-43
2022/05/03 10:22:05;;;;;;;26.40;14.23;;;17.90;49.90;;;;;;5037223;28;20051;-43
2022/05/03 10:24:33;;;;;;;19.65;13.75;;;18.00;49.90;;;;;;5057403;28;20063;-43
2022/05/03 10:27:05;;;;;;;22.25;15.02;;;18.10;50.80;;;;;;5040806;28;20063;-42
2022/05/03 10:29:34;;;;;;;19.27;12.30;;;18.20;49.40;;;;;;5034995;28;20048;-43
2022/05/03 10:32:14;;;;;;;22.15;14.90;;;18.30;49.40;;;;;;5036862;28;20051;-43
2022/05/03 10:34:51;;;;;;;19.35;13.18;;;18.40;49.10;;;;;;5053538;28;20488;-43
2022/05/03 10:37:20;;;;;;;17.83;13.13;;;18.50;48.50;;;;;;5056279;28;20048;-43
2022/05/03 10:39:55;;;;;;;17.63;12.23;;;18.60;48.70;;;;;;5041947;28;20672;-43
2022/05/03 10:42:25;;;;;;;14.70;11.23;;;18.60;48.60;;;;;;5037238;28;20697;-43
2022/05/03 10:45:03;;;;;;;16.63;12.50;;;18.70;48.40;;;;;;5030214;28;20392;-43
2022/05/03 10:47:50;;;;;;;25.77;13.45;;;18.80;47.90;;;;;;5051518;28;20049;-43
2022/05/03 10:50:40;;;;;;;19.10;12.45;;;18.90;47.60;;;;;;5056732;28;20060;-46
2022/05/03 10:53:22;;;;;;;21.38;13.80;;;18.90;48.80;;;;;;5045203;28;20059;-44
2022/05/03 10:56:16;;;;;;;17.10;13.02;;;19.00;47.70;;;;;;5041034;28;20416;-43
2022/05/03 10:58:46;;;;;;;17.27;12.63;;;19.10;47.10;;;;;;5056095;28;20063;-43
2022/05/03 11:01:17;;;;;;;18.42;13.95;;;19.20;47.40;;;;;;5031912;28;20596;-44
2022/05/03 11:04:12;;;;;;;18.75;11.63;;;19.30;46.50;;;;;;5036849;28;20072;-45
2022/05/03 11:06:41;;;;;;;17.67;13.02;;;19.30;46.20;;;;;;5032672;28;20067;-46
2022/05/03 11:09:10;;;;;;;17.00;11.35;;;19.30;46.20;;;;;;5041086;28;20056;-44
2022/05/03 11:11:52;;;;;;;21.25;12.23;;;19.40;46.40;;;;;;5035557;28;20068;-45
2022/05/03 11:14:45;;;;;;;18.52;11.63;;;19.50;46.60;;;;;;5038620;28;20048;-47
2022/05/03 11:17:13;;;;;;;17.60;12.25;;;19.60;46.20;;;;;;5042961;28;20056;-43
2022/05/03 11:19:58;;;;;;;15.93;11.82;;;19.60;44.50;;;;;;5052134;28;20052;-45
2022/05/03 11:22:28;;;;;;;21.00;12.00;;;19.70;45.50;;;;;;5036028;28;20499;-43
2022/05/03 11:24:58;;;;;;;18.40;11.68;;;19.70;44.70;;;;;;5033189;28;20052;-44
2022/05/03 11:27:27;;;;;;;18.30;11.38;;;19.80;44.70;;;;;;5041478;28;20721;-45
2022/05/03 11:29:59;;;;;;;17.75;11.27;;;19.80;45.10;;;;;;5057744;28;20061;-43
2022/05/03 11:32:33;;;;;;;18.40;10.73;;;19.90;44.10;;;;;;5052920;28;20046;-46
2022/05/03 11:35:07;;;;;;;22.65;11.90;;;20.00;44.90;;;;;;5061285;28;20059;-43
2022/05/03 11:37:36;;;;;;;22.05;12.05;;;20.00;42.90;;;;;;5060580;28;20527;-42
2022/05/03 11:40:06;;;;;;;19.08;11.30;;;20.10;42.40;;;;;;5059315;28;20511;-43
2022/05/03 11:42:39;;;;;;;15.70;11.13;;;20.10;41.80;;;;;;5052521;28;20515;-43
2022/05/03 11:45:10;;;;;;;15.23;10.90;;;20.10;41.40;;;;;;5054085;28;20527;-45
2022/05/03 11:47:43;;;;;;;21.17;11.60;;;20.10;43.10;;;;;;5052479;28;20048;-43
2022/05/03 11:55:58;;;;;;;15.40;11.98;;;20.10;41.80;;;;;;5059106;28;20063;-42
2022/05/03 11:56:01;;;;;;;16.60;12.18;;;20.10;41.70;;;;;;5064961;28;20059;-44
2022/05/03 11:58:31;;;;;;;17.52;11.65;;;20.20;41.30;;;;;;5060197;28;20068;-42
2022/05/03 12:01:00;;;;;;;20.77;11.07;;;20.20;42.30;;;;;;5056875;28;20063;-45
2022/05/03 12:03:29;;;;;;;22.80;11.73;;;20.20;41.00;;;;;;5054043;28;20416;-42
2022/05/03 12:06:03;;;;;;;16.50;10.60;;;20.20;41.00;;;;;;5060762;28;20052;-43
2022/05/03 12:08:32;;;;;;;17.08;10.98;;;20.30;41.40;;;;;;5053011;28;20056;-43
2022/05/03 12:10:59;;;;;;;14.32;11.07;;;20.30;41.90;;;;;;5057371;28;20063;-43
2022/05/03 12:13:31;;;;;;;17.23;11.93;;;20.30;41.50;;;;;;5055863;28;20045;-43
2022/05/03 12:16:15;;;;;;;17.30;11.25;;;20.30;40.70;;;;;;5060501;28;20079;-43
2022/05/03 12:18:45;;;;;;;21.90;11.57;;;20.40;41.30;;;;;;5058413;28;20052;-43
2022/05/03 12:21:16;;;;;;;15.25;10.80;;;20.40;39.60;;;;;;5058942;28;20045;-43
2022/05/03 12:23:45;;;;;;;16.10;11.13;;;20.40;39.90;;;;;;5053376;28;20056;-43
2022/05/03 12:26:35;;;;;;;18.10;11.80;;;20.40;39.70;;;;;;5058441;28;20056;-42
2022/05/03 12:29:04;;;;;;;25.02;11.68;;;20.40;39.50;;;;;;5049500;28;20061;-43
2022/05/03 12:31:35;;;;;;;14.20;10.98;;;20.40;40.50;;;;;;5054090;28;20064;-43
2022/05/03 12:34:04;;;;;;;16.48;10.68;;;20.40;40.90;;;;;;5057164;28;20056;-43
2022/05/03 12:36:35;;;;;;;18.15;10.75;;;20.30;40.00;;;;;;5059716;28;20052;-43
2022/05/03 12:39:17;;;;;;;14.75;11.65;;;20.40;40.80;;;;;;5052647;28;20487;-43
2022/05/03 12:41:45;;;;;;;15.07;10.43;;;20.40;39.20;;;;;;5053870;28;20053;-42
2022/05/03 12:44:15;;;;;;;19.20;10.85;;;20.50;40.00;;;;;;5040922;28;20571;-43
2022/05/03 12:46:43;;;;;;;16.90;11.05;;;20.60;40.90;;;;;;5034346;28;20056;-43
2022/05/03 12:49:12;;;;;;;15.18;10.25;;;20.60;39.00;;;;;;5038559;28;20060;-43
2022/05/03 12:51:43;;;;;;;15.25;10.05;;;20.70;39.70;;;;;;5031588;28;20057;-47
2022/05/03 12:54:11;;;;;;;17.05;10.93;;;20.70;39.50;;;;;;5037965;28;20053;-43
2022/05/03 12:59:25;;;;;;;16.10;10.77;;;20.70;40.00;;;;;;5049482;28;20051;-44
2022/05/03 13:01:56;;;;;;;16.50;11.25;;;20.70;39.60;;;;;;5042959;28;20056;-43
2022/05/03 13:04:24;;;;;;;17.48;10.93;;;20.70;39.40;;;;;;5038204;28;20088;-43
2022/05/03 13:06:54;;;;;;;14.27;10.40;;;20.80;39.30;;;;;;5038946;28;20436;-44
2022/05/03 13:09:22;;;;;;;16.38;9.43;;;20.80;38.90;;;;;;5045208;28;20686;-43
2022/05/03 13:11:49;;;;;;;15.40;11.25;;;20.90;39.60;;;;;;5040243;28;20431;-42
2022/05/03 13:14:17;;;;;;;15.75;10.60;;;20.90;38.20;;;;;;5037552;28;20064;-45
2022/05/03 13:16:45;;;;;;;14.88;10.60;;;20.90;38.20;;;;;;5037821;28;20500;-43
2022/05/03 13:19:13;;;;;;;16.92;12.15;;;20.90;37.50;;;;;;5057132;28;20074;-43
2022/05/03 13:21:41;;;;;;;15.93;11.70;;;20.90;37.00;;;;;;5062890;28;20055;-45
2022/05/03 13:24:12;;;;;;;17.05;10.73;;;20.80;37.10;;;;;;5062674;28;20044;-44